Time;durP1;ratioP1;P1;durP2;ratioP2;P2;SDS_P1;SDS_P2;PMS_P1;PMS_P2;Temp;Humidity;BMP_temperature;BMP_pressure;BME280_temperature;BME280_humidity;BME280_pressure;Samples;Min_cycle;Max_cycle;Signal;HPM_P1;HPM_P2
2021/06/05 00:01:48;;;;;;;9.68;3.75;;;;;;;17.21;74.19;100230.13;5116861;28;20044;-51
2021/06/05 00:04:15;;;;;;;6.47;4.05;;;;;;;17.17;74.33;100232.06;5118103;28;20047;-51
2021/06/05 00:06:41;;;;;;;6.25;3.85;;;;;;;17.20;74.03;100231.06;5118320;28;20035;-51
2021/06/05 00:09:07;;;;;;;5.10;4.07;;;;;;;17.18;74.90;100244.34;5116811;28;20051;-51
2021/06/05 00:11:34;;;;;;;6.43;4.47;;;;;;;17.20;74.84;100250.44;5117942;28;20051;-51
2021/06/05 00:14:02;;;;;;;7.50;4.88;;;;;;;17.21;74.78;100252.16;5117634;28;20370;-51
2021/06/05 00:16:44;;;;;;;23.08;12.30;;;;;;;17.24;74.39;100257.31;5117503;28;20054;-51
2021/06/05 00:19:14;;;;;;;21.20;10.63;;;;;;;17.23;74.86;100257.41;5117815;28;20105;-51
2021/06/05 00:21:40;;;;;;;21.65;11.70;;;;;;;17.20;74.82;100255.75;5117636;28;20120;-51
2021/06/05 00:24:07;;;;;;;18.50;11.45;;;;;;;17.26;74.75;100275.78;5116506;28;20404;-51
2021/06/05 00:26:33;;;;;;;14.82;9.85;;;;;;;17.27;74.88;100281.00;5117942;28;20043;-51
2021/06/05 00:28:59;;;;;;;12.07;7.03;;;;;;;17.27;75.03;100275.69;5116475;28;20100;-51
2021/06/05 00:31:25;;;;;;;8.35;5.78;;;;;;;17.27;75.21;100270.41;5117246;28;20580;-50
2021/06/05 00:33:52;;;;;;;7.05;5.45;;;;;;;17.25;75.04;100269.59;5116429;28;20424;-50
2021/06/05 00:36:18;;;;;;;6.97;5.20;;;;;;;17.25;74.71;100266.97;5116302;28;20078;-51
2021/06/05 00:38:44;;;;;;;7.43;5.43;;;;;;;17.26;74.73;100258.13;5117203;28;20046;-51
2021/06/05 00:41:13;;;;;;;5.70;5.00;;;;;;;17.26;74.84;100254.63;5117342;28;20044;-51
2021/06/05 00:43:41;;;;;;;7.10;5.13;;;;;;;17.27;74.86;100262.47;5117071;28;20051;-51
2021/06/05 00:46:07;;;;;;;7.72;4.70;;;;;;;17.27;74.64;100264.25;5116493;28;20134;-50
2021/06/05 00:48:33;;;;;;;6.07;4.88;;;;;;;17.27;74.98;100265.13;5117015;28;20467;-51
2021/06/05 00:50:59;;;;;;;8.13;5.35;;;;;;;17.28;74.71;100266.81;5116782;28;20035;-51
2021/06/05 00:53:30;;;;;;;6.55;5.10;;;;;;;17.29;74.94;100262.41;5116603;28;20046;-51
2021/06/05 00:55:59;;;;;;;9.52;6.32;;;;;;;17.31;75.00;100259.69;5116079;28;20036;-50
2021/06/05 00:58:27;;;;;;;21.50;12.27;;;;;;;17.29;75.66;100262.41;5116263;28;20086;-51
2021/06/05 01:00:55;;;;;;;29.10;15.05;;;;;;;17.26;75.67;100263.41;5117102;28;20054;-51
2021/06/05 01:03:22;;;;;;;33.20;17.17;;;;;;;17.29;75.68;100271.22;5099615;28;20044;-51
2021/06/05 01:05:52;;;;;;;30.42;17.17;;;;;;;17.26;75.99;100268.69;5116718;28;20359;-51
2021/06/05 01:08:46;;;;;;;23.38;13.27;;;;;;;17.27;75.95;100264.25;5116198;28;20043;-50
2021/06/05 01:11:23;;;;;;;15.73;9.57;;;;;;;17.24;75.95;100269.69;5099190;28;20062;-51
2021/06/05 01:14:04;;;;;;;11.27;7.18;;;;;;;17.24;75.61;100262.59;5116126;28;20047;-51
2021/06/05 01:16:30;;;;;;;7.70;5.63;;;;;;;17.20;75.66;100255.75;5115848;28;20050;-51
2021/06/05 01:18:59;;;;;;;6.53;4.88;;;;;;;17.23;75.53;100260.03;5099663;28;20051;-51
2021/06/05 01:21:41;;;;;;;5.55;4.53;;;;;;;17.23;75.54;100249.47;5082296;28;20066;-51
2021/06/05 01:24:16;;;;;;;6.35;4.10;;;;;;;17.20;75.63;100245.16;5083515;28;20054;-51
2021/06/05 01:26:42;;;;;;;5.70;3.90;;;;;;;17.19;75.54;100240.81;5116550;28;20333;-51
2021/06/05 01:29:26;;;;;;;6.63;4.00;;;;;;;17.15;75.46;100225.97;5115929;28;20051;-51
2021/06/05 01:31:57;;;;;;;5.43;3.85;;;;;;;17.22;75.71;100232.72;5099330;28;20040;-51
2021/06/05 01:34:28;;;;;;;6.30;4.72;;;;;;;17.21;75.65;100222.19;5115586;28;20466;-51
2021/06/05 01:36:54;;;;;;;9.70;5.05;;;;;;;17.20;75.63;100225.78;5116651;28;20047;-51
2021/06/05 01:39:32;;;;;;;7.00;4.45;;;;;;;16.84;75.33;100170.09;5116558;28;20086;-51
2021/06/05 01:42:00;;;;;;;5.10;3.65;;;;;;;17.13;75.44;100222.56;5099393;28;20050;-51
2021/06/05 01:44:27;;;;;;;7.32;5.35;;;;;;;17.11;75.30;100220.91;5082684;28;20052;-51
2021/06/05 01:46:54;;;;;;;7.15;4.38;;;;;;;17.06;75.29;100210.50;5098669;28;20096;-51
2021/06/05 01:49:22;;;;;;;9.45;6.55;;;;;;;17.01;75.08;100204.56;5115729;28;20056;-51
2021/06/05 01:51:56;;;;;;;7.28;6.03;;;;;;;16.96;75.23;100201.25;5115409;28;20062;-51
2021/06/05 01:54:25;;;;;;;6.55;4.50;;;;;;;16.88;75.23;100190.19;5115706;28;20036;-50
2021/06/05 01:56:59;;;;;;;5.57;4.05;;;;;;;16.82;75.21;100194.81;5098774;28;20048;-51
2021/06/05 01:59:54;;;;;;;5.78;3.75;;;;;;;16.67;75.20;100181.38;5061725;28;20543;-51
2021/06/05 02:02:22;;;;;;;5.63;3.53;;;;;;;16.72;75.04;100189.97;5099366;28;20043;-51
2021/06/05 02:04:52;;;;;;;5.00;4.30;;;;;;;16.66;75.24;100199.03;5118079;28;20356;-51
2021/06/05 02:07:18;;;;;;;5.18;3.63;;;;;;;16.62;75.10;100202.75;5119564;28;20071;-51
2021/06/05 02:09:50;;;;;;;6.25;4.22;;;;;;;16.60;75.39;100192.22;5103043;28;20047;-51
2021/06/05 02:12:29;;;;;;;6.47;4.07;;;;;;;16.58;75.33;100196.72;5119148;28;20118;-50
2021/06/05 02:15:11;;;;;;;6.63;4.90;;;;;;;16.54;75.38;100195.16;5120295;28;20109;-50
2021/06/05 02:17:40;;;;;;;7.32;5.10;;;;;;;16.52;75.67;100191.72;5120226;28;20048;-50
2021/06/05 02:20:22;;;;;;;6.57;4.40;;;;;;;16.53;75.42;100188.13;5102568;28;20047;-51
2021/06/05 02:23:01;;;;;;;8.68;4.32;;;;;;;16.50;75.45;100184.75;5118817;28;20444;-50
2021/06/05 02:25:27;;;;;;;6.20;4.43;;;;;;;16.48;75.75;100186.63;5119128;28;20116;-50
2021/06/05 02:27:58;;;;;;;6.05;5.20;;;;;;;16.48;75.77;100187.50;5102408;28;20398;-50
2021/06/05 02:30:24;;;;;;;8.05;5.65;;;;;;;16.47;75.96;100184.91;5118788;28;20071;-51
2021/06/05 02:32:50;;;;;;;9.82;6.00;;;;;;;16.47;76.47;100182.25;5119645;28;20040;-51
2021/06/05 02:35:31;;;;;;;7.00;5.97;;;;;;;16.47;76.69;100185.75;5103131;28;20208;-51
2021/06/05 02:38:04;;;;;;;6.35;4.80;;;;;;;16.45;76.76;100190.25;5119013;28;20062;-50
2021/06/05 02:40:37;;;;;;;;;;;;;;;16.28;77.61;100179.53;5119415;28;20052;-51
2021/06/05 02:43:09;;;;;;;8.13;5.63;;;;;;;16.39;77.08;100184.38;5118778;28;19931;-50
2021/06/05 02:45:39;;;;;;;7.35;5.47;;;;;;;16.47;76.87;100175.19;5119706;28;20062;-51
2021/06/05 02:48:05;;;;;;;7.55;5.68;;;;;;;16.49;76.83;100173.34;5119610;28;20108;-50
2021/06/05 02:50:43;;;;;;;9.20;6.35;;;;;;;16.53;76.63;100174.91;5118781;28;20047;-51
2021/06/05 02:53:13;;;;;;;6.63;5.10;;;;;;;16.54;76.75;100175.75;5118408;28;20039;-51
2021/06/05 02:55:41;;;;;;;8.60;6.20;;;;;;;16.55;76.84;100167.78;5119503;28;20091;-50
2021/06/05 02:58:08;;;;;;;9.63;6.32;;;;;;;16.58;76.77;100172.09;5118280;28;20043;-50
2021/06/05 03:00:48;;;;;;;8.32;5.90;;;;;;;16.62;76.54;100157.78;5101532;28;20066;-51
2021/06/05 03:03:18;;;;;;;9.68;6.18;;;;;;;16.57;76.56;100150.06;5119288;28;20047;-51
2021/06/05 03:05:44;;;;;;;7.75;5.65;;;;;;;16.64;76.62;100158.59;5101504;28;20044;-51
2021/06/05 03:08:17;;;;;;;8.50;7.22;;;;;;;16.68;76.73;100159.31;5120116;27;20047;-50
2021/06/05 03:10:43;;;;;;;8.07;7.13;;;;;;;16.69;76.75;100155.72;5119204;28;20055;-50
2021/06/05 03:13:10;;;;;;;8.02;6.60;;;;;;;16.69;76.71;100146.00;5119149;27;20048;-51
2021/06/05 03:15:37;;;;;;;8.82;7.20;;;;;;;16.72;76.50;100145.88;5117789;28;20067;-51
2021/06/05 03:18:03;;;;;;;7.82;6.65;;;;;;;16.75;76.49;100143.13;5118865;28;20043;-51
2021/06/05 03:20:35;;;;;;;7.30;6.05;;;;;;;16.81;76.34;100136.72;5118961;28;20063;-51
2021/06/05 03:23:01;;;;;;;8.20;5.80;;;;;;;16.78;76.53;100135.06;5118946;28;20492;-51
2021/06/05 03:25:27;;;;;;;7.20;6.10;;;;;;;16.82;76.65;100136.63;5118847;28;20289;-51
2021/06/05 03:27:57;;;;;;;8.93;6.72;;;;;;;16.87;76.84;100138.22;5101089;28;20035;-51
2021/06/05 03:30:25;;;;;;;9.90;6.72;;;;;;;16.90;76.98;100138.06;5117605;28;20507;-51
2021/06/05 03:32:52;;;;;;;8.02;6.22;;;;;;;16.92;76.90;100144.13;5117602;28;20171;-51
2021/06/05 03:35:18;;;;;;;7.28;5.20;;;;;;;16.95;76.51;100141.34;5117568;28;20336;-51
2021/06/05 03:37:44;;;;;;;7.57;5.15;;;;;;;16.97;76.26;100137.72;5117504;28;20062;-50
2021/06/05 03:40:15;;;;;;;6.05;4.90;;;;;;;17.02;76.21;100143.63;5117713;28;20054;-50
2021/06/05 03:42:41;;;;;;;6.18;5.32;;;;;;;17.03;76.33;100132.16;5118491;28;20057;-51
2021/06/05 03:45:08;;;;;;;5.38;4.30;;;;;;;17.05;76.15;100132.91;5118485;28;20055;-50
2021/06/05 03:47:35;;;;;;;5.50;4.53;;;;;;;17.09;76.20;100140.72;5100710;28;20071;-51
2021/06/05 03:50:05;;;;;;;4.57;4.00;;;;;;;17.13;75.77;100134.38;5118142;28;20104;-51
2021/06/05 03:52:32;;;;;;;5.70;4.15;;;;;;;17.14;76.06;100139.56;5118106;28;20406;-51
2021/06/05 03:54:58;;;;;;;6.82;4.93;;;;;;;17.15;75.27;100130.69;5117177;28;20073;-51
2021/06/05 03:57:25;;;;;;;6.25;4.97;;;;;;;17.12;75.46;100129.97;5118248;28;20112;-51
2021/06/05 03:59:53;;;;;;;8.63;5.82;;;;;;;17.08;75.52;100121.34;5117951;28;20044;-51
2021/06/05 04:02:19;;;;;;;8.95;5.75;;;;;;;17.04;75.49;100119.78;5117838;28;20127;-51
2021/06/05 04:04:45;;;;;;;6.65;5.38;;;;;;;17.01;75.62;100112.81;5117202;28;20055;-50
2021/06/05 04:07:11;;;;;;;7.70;5.25;;;;;;;16.99;75.72;100122.59;5117738;28;20345;-51
2021/06/05 04:09:37;;;;;;;5.25;4.75;;;;;;;17.01;75.87;100122.56;5118012;28;20108;-51
2021/06/05 04:12:04;;;;;;;5.63;4.80;;;;;;;17.04;76.05;100123.28;5117985;28;20047;-50
2021/06/05 04:14:30;;;;;;;7.60;5.00;;;;;;;17.08;75.88;100125.78;5117888;28;20059;-51
2021/06/05 04:16:56;;;;;;;5.65;4.65;;;;;;;17.10;76.12;100124.78;5116973;28;20440;-51
2021/06/05 04:19:22;;;;;;;6.10;5.18;;;;;;;17.20;76.34;100133.13;5117517;27;20043;-51
2021/06/05 04:21:47;;;;;;;6.60;5.22;;;;;;;17.29;76.24;100127.41;5117273;28;20094;-50
2021/06/05 04:24:13;;;;;;;5.93;5.25;;;;;;;17.38;76.18;100131.38;5117377;28;20066;-50
2021/06/05 04:26:39;;;;;;;6.97;6.20;;;;;;;17.41;75.68;100120.66;5115812;28;20035;-51
2021/06/05 04:29:06;;;;;;;5.90;4.70;;;;;;;17.43;75.63;100121.44;5117302;28;20040;-50
2021/06/05 04:31:31;;;;;;;20.52;14.27;;;;;;;17.46;75.54;100122.16;5116682;28;20074;-50
2021/06/05 04:33:57;;;;;;;10.90;7.25;;;;;;;17.53;75.52;100120.91;5117157;28;20115;-50
2021/06/05 04:36:23;;;;;;;8.30;6.07;;;;;;;17.59;75.10;100117.13;5117759;28;20039;-51
2021/06/05 04:38:49;;;;;;;7.07;4.95;;;;;;;17.62;74.87;100109.03;5117400;28;20043;-51
2021/06/05 04:41:16;;;;;;;9.13;6.20;;;;;;;17.68;74.66;100105.22;5117374;28;20054;-51
2021/06/05 04:43:42;;;;;;;7.10;5.22;;;;;;;17.71;74.51;100105.94;5117853;28;20047;-51
2021/06/05 04:46:08;;;;;;;4.82;4.43;;;;;;;17.75;74.36;100112.78;5117341;28;20085;-50
2021/06/05 04:48:34;;;;;;;6.90;5.35;;;;;;;17.80;74.33;100115.22;5117044;28;20050;-51
2021/06/05 04:51:00;;;;;;;6.57;4.85;;;;;;;17.88;74.54;100112.22;5117223;28;20097;-50
2021/06/05 04:53:26;;;;;;;5.10;4.30;;;;;;;18.10;74.62;100106.66;5117194;28;20126;-51
2021/06/05 04:55:52;;;;;;;4.88;4.28;;;;;;;18.71;74.53;100099.91;5117156;28;20371;-51
2021/06/05 04:58:17;;;;;;;5.22;4.22;;;;;;;19.34;73.58;100098.19;5117093;28;20043;-51
2021/06/05 05:00:46;;;;;;;7.72;4.10;;;;;;;19.59;72.20;100094.13;5117086;28;20051;-50
2021/06/05 05:03:16;;;;;;;7.63;4.93;;;;;;;19.99;71.04;100098.00;5116656;28;20046;-51
2021/06/05 05:05:42;;;;;;;5.55;4.30;;;;;;;20.57;69.53;100090.97;5117319;28;20047;-51
2021/06/05 05:08:08;;;;;;;5.15;4.15;;;;;;;21.26;67.79;100097.25;5116653;28;20489;-50
2021/06/05 05:10:37;;;;;;;4.32;3.47;;;;;;;21.91;66.23;100107.22;5116605;28;20051;-51
2021/06/05 05:13:03;;;;;;;6.97;4.25;;;;;;;22.54;64.65;100101.09;5116888;28;20043;-50
2021/06/05 05:15:28;;;;;;;5.40;4.18;;;;;;;23.07;61.52;100098.25;5116918;28;20043;-51
2021/06/05 05:17:55;;;;;;;4.97;3.25;;;;;;;23.50;60.65;100101.31;5115988;28;20051;-50
2021/06/05 05:20:23;;;;;;;3.63;3.33;;;;;;;23.97;59.34;100104.09;5116815;28;20416;-50
2021/06/05 05:22:49;;;;;;;4.30;3.22;;;;;;;24.38;57.50;100100.91;5116308;28;20051;-51
2021/06/05 05:25:15;;;;;;;6.15;3.13;;;;;;;24.82;56.06;100101.06;5115432;28;20056;-51
2021/06/05 05:27:40;;;;;;;3.30;3.03;;;;;;;25.12;55.24;100095.09;5115579;28;20059;-51
2021/06/05 05:30:08;;;;;;;49.03;44.40;;;;;;;25.42;53.26;100107.84;5116690;28;20058;-50
2021/06/05 05:32:34;;;;;;;245.10;217.98;;;;;;;25.60;51.79;100097.41;5115142;28;20113;-51
2021/06/05 05:35:00;;;;;;;179.00;154.60;;;;;;;25.79;51.44;100105.59;5114421;28;20444;-51
2021/06/05 05:37:25;;;;;;;69.90;57.35;;;;;;;26.02;50.83;100102.84;5114093;28;20059;-51
2021/06/05 05:39:51;;;;;;;101.70;90.53;;;;;;;26.23;51.37;100102.88;5118876;28;20047;-51
2021/06/05 05:42:17;;;;;;;344.25;269.80;;;;;;;26.57;50.14;100104.34;5118689;28;20101;-51
2021/06/05 05:44:43;;;;;;;103.40;92.40;;;;;;;26.90;49.55;100106.88;5118772;28;20048;-51
2021/06/05 05:47:09;;;;;;;23.45;20.95;;;;;;;27.28;48.55;100108.88;5117569;28;20050;-51
2021/06/05 05:49:35;;;;;;;6.68;5.90;;;;;;;27.44;47.15;100106.50;5119644;28;20428;-51
2021/06/05 05:52:00;;;;;;;4.50;3.80;;;;;;;27.54;46.19;100101.13;5120435;28;20050;-52
2021/06/05 05:54:26;;;;;;;4.88;3.05;;;;;;;27.67;45.79;100109.75;5120045;28;20055;-51
2021/06/05 05:56:52;;;;;;;4.72;3.33;;;;;;;27.91;46.27;100112.03;5120336;28;20035;-51
2021/06/05 05:59:20;;;;;;;3.03;2.72;;;;;;;28.21;45.86;100104.81;5120548;28;20096;-51
2021/06/05 06:01:46;;;;;;;3.40;2.42;;;;;;;28.41;45.02;100101.09;5120416;28;20171;-51
2021/06/05 06:04:11;;;;;;;4.57;2.63;;;;;;;28.56;44.23;100098.78;5120130;28;20113;-51
2021/06/05 06:06:37;;;;;;;3.38;2.72;;;;;;;28.91;43.23;100101.75;5120392;28;20104;-51
2021/06/05 06:09:03;;;;;;;5.57;2.78;;;;;;;29.22;42.73;100102.34;5120351;28;20442;-51
2021/06/05 06:11:29;;;;;;;3.33;2.38;;;;;;;29.35;42.38;100102.81;5120151;28;20176;-52
2021/06/05 06:13:56;;;;;;;5.18;2.47;;;;;;;29.62;42.29;100095.69;5120246;28;20044;-52
2021/06/05 06:16:22;;;;;;;3.13;2.33;;;;;;;29.76;41.59;100103.25;5119895;28;20337;-52
2021/06/05 06:18:47;;;;;;;7.00;2.65;;;;;;;29.93;41.10;100102.41;5120494;28;20145;-52
2021/06/05 06:21:15;;;;;;;4.07;2.50;;;;;;;30.08;40.94;100099.97;5119548;28;20052;-51
2021/06/05 06:23:42;;;;;;;4.00;2.63;;;;;;;30.16;40.22;100089.25;5119666;28;20436;-52
2021/06/05 06:26:16;;;;;;;4.60;2.05;;;;;;;30.56;40.04;100095.09;5119976;28;20084;-52
2021/06/05 06:28:42;;;;;;;5.65;2.72;;;;;;;30.55;39.69;100104.19;5119932;28;20109;-51
2021/06/05 06:31:08;;;;;;;8.00;4.07;;;;;;;29.98;39.69;100104.63;5119582;28;20055;-52
2021/06/05 06:33:34;;;;;;;5.72;2.90;;;;;;;29.49;40.73;100102.28;5119834;28;20127;-52
2021/06/05 06:36:00;;;;;;;3.42;2.88;;;;;;;29.03;40.62;100109.53;5119827;28;20066;-51
2021/06/05 06:38:28;;;;;;;5.32;3.90;;;;;;;28.51;41.61;100108.31;5119811;28;20442;-51
2021/06/05 06:40:54;;;;;;;3.08;2.78;;;;;;;28.67;41.76;100105.84;5118633;28;20040;-52
2021/06/05 06:43:23;;;;;;;3.35;2.70;;;;;;;29.04;42.11;100115.78;5118421;28;20040;-52
2021/06/05 06:45:59;;;;;;;3.05;2.72;;;;;;;29.52;41.61;100109.22;5119326;28;20058;-51
2021/06/05 06:48:25;;;;;;;4.47;3.50;;;;;;;29.87;41.05;100108.41;5118703;28;20142;-52
2021/06/05 06:50:51;;;;;;;4.53;2.97;;;;;;;30.23;40.87;100105.69;5117914;28;20062;-52
2021/06/05 06:53:18;;;;;;;2.90;2.70;;;;;;;30.28;40.36;100109.59;5119460;28;20063;-52
2021/06/05 06:55:44;;;;;;;2.88;2.38;;;;;;;30.20;39.88;100106.84;5119188;28;20482;-46
2021/06/05 06:58:10;;;;;;;2.78;2.28;;;;;;;29.87;39.89;100103.03;5119199;28;20093;-47
2021/06/05 07:00:38;;;;;;;3.45;2.58;;;;;;;30.09;39.44;100115.16;5119309;27;20055;-46
2021/06/05 07:03:04;;;;;;;4.38;3.50;;;;;;;30.18;39.68;100107.97;5118139;28;20036;-46
2021/06/05 07:05:30;;;;;;;4.50;2.70;;;;;;;29.97;39.55;100108.31;5117758;28;20047;-46
2021/06/05 07:08:30;;;;;;;6.07;3.80;;;;;;;29.80;39.11;100115.41;5117261;28;20183;-46
2021/06/05 07:11:01;;;;;;;3.42;3.00;;;;;;;29.40;40.62;100113.16;5089020;28;20044;-46
2021/06/05 07:13:27;;;;;;;3.03;2.72;;;;;;;29.21;40.55;100111.41;5116277;28;20040;-46
2021/06/05 07:15:53;;;;;;;6.47;3.05;;;;;;;28.97;40.85;100111.94;5116245;28;20067;-46
2021/06/05 07:18:20;;;;;;;4.28;3.25;;;;;;;28.77;40.94;100114.72;5117089;28;20097;-46
2021/06/05 07:20:48;;;;;;;5.18;2.15;;;;;;;29.09;41.46;100118.88;5117954;28;20071;-46
2021/06/05 07:23:15;;;;;;;3.78;3.38;;;;;;;29.70;40.68;100112.78;5118326;28;20431;-46
2021/06/05 07:25:42;;;;;;;4.47;2.78;;;;;;;29.97;39.66;100116.44;5117451;28;20126;-46
2021/06/05 07:28:21;;;;;;;6.13;3.33;;;;;;;30.01;39.90;100123.19;5116648;28;20348;-46
2021/06/05 07:30:47;;;;;;;4.90;3.22;;;;;;;30.17;39.10;100123.34;5116844;28;20294;-46
2021/06/05 07:33:13;;;;;;;3.38;2.80;;;;;;;30.32;38.52;100129.03;5116665;28;20045;-46
2021/06/05 07:35:39;;;;;;;2.85;2.30;;;;;;;30.03;37.89;100121.22;5115480;28;20031;-46
2021/06/05 07:38:06;;;;;;;3.08;2.60;;;;;;;30.28;38.21;100123.09;5116331;28;20054;-46
2021/06/05 07:40:32;;;;;;;2.90;2.60;;;;;;;30.45;37.27;100124.06;5116518;28;20047;-46
2021/06/05 07:42:58;;;;;;;5.15;3.25;;;;;;;30.76;37.36;100120.03;5118978;28;20043;-46
2021/06/05 07:45:24;;;;;;;4.25;3.00;;;;;;;30.96;37.54;100105.25;5118430;28;20066;-46
2021/06/05 07:47:50;;;;;;;6.63;3.45;;;;;;;31.17;37.29;100107.56;5118405;28;20115;-46
2021/06/05 07:50:16;;;;;;;4.38;2.67;;;;;;;31.37;36.12;100103.56;5117217;28;20417;-47
2021/06/05 07:52:42;;;;;;;6.93;3.10;;;;;;;31.07;35.69;100107.69;5117812;28;20102;-46
2021/06/05 07:55:08;;;;;;;3.30;2.17;;;;;;;30.87;36.34;100107.06;5118249;28;20483;-46
2021/06/05 07:57:34;;;;;;;5.40;2.72;;;;;;;30.77;36.16;100105.50;5118956;28;20075;-47
2021/06/05 08:00:00;;;;;;;4.45;2.90;;;;;;;30.78;35.90;100099.09;5067829;28;20056;-47
2021/06/05 08:02:26;;;;;;;3.40;3.10;;;;;;;30.96;35.25;100105.25;5116093;28;20047;-46
2021/06/05 08:04:51;;;;;;;2.40;2.20;;;;;;;31.09;35.43;100089.41;5118060;28;20493;-47
2021/06/05 08:07:18;;;;;;;5.93;4.05;;;;;;;31.26;34.73;100094.88;5118035;28;20057;-46
2021/06/05 08:09:44;;;;;;;5.22;3.63;;;;;;;31.57;34.60;100093.28;5117119;28;20058;-47
2021/06/05 08:12:10;;;;;;;3.20;2.42;;;;;;;31.83;35.67;100095.84;5117676;28;20044;-47
2021/06/05 08:14:36;;;;;;;3.25;2.70;;;;;;;32.04;34.66;100095.34;5116887;28;20060;-47
2021/06/05 08:17:02;;;;;;;9.00;3.90;;;;;;;32.16;34.13;100092.31;5117821;28;20058;-47
2021/06/05 08:19:28;;;;;;;4.78;4.25;;;;;;;32.27;34.36;100090.09;5117746;28;20070;-47
2021/06/05 08:21:54;;;;;;;7.30;5.65;;;;;;;32.38;34.59;100086.19;5117288;28;20051;-47
2021/06/05 08:24:20;;;;;;;6.32;4.70;;;;;;;32.41;34.38;100091.25;5117467;28;20073;-47
2021/06/05 08:26:46;;;;;;;5.60;4.45;;;;;;;32.25;33.71;100083.16;5083064;28;20179;-47
2021/06/05 08:29:12;;;;;;;6.28;4.45;;;;;;;32.05;34.11;100079.97;5117714;28;20073;-47
2021/06/05 08:31:38;;;;;;;6.57;3.92;;;;;;;31.80;34.04;100082.63;5117263;28;20043;-47
2021/06/05 08:34:04;;;;;;;4.45;3.88;;;;;;;31.58;34.84;100083.31;5117629;28;20056;-47
2021/06/05 08:36:30;;;;;;;6.35;4.50;;;;;;;31.40;34.94;100083.47;5099486;28;20459;-47
2021/06/05 08:38:56;;;;;;;6.45;5.10;;;;;;;30.85;35.23;100075.84;5117311;28;20055;-47
2021/06/05 08:41:42;;;;;;;6.72;4.30;;;;;;;31.01;35.50;100077.75;5117615;28;20051;-47
2021/06/05 08:44:34;;;;;;;8.40;5.18;;;;;;;31.03;35.04;100078.41;5117380;28;20481;-47
2021/06/05 08:47:03;;;;;;;5.10;4.60;;;;;;;30.94;36.18;100073.00;5116643;28;20340;-47
2021/06/05 08:49:32;;;;;;;7.03;4.20;;;;;;;30.91;35.80;100072.47;5099524;28;20055;-47
2021/06/05 08:52:05;;;;;;;4.90;4.10;;;;;;;30.72;35.23;100073.53;5117313;28;20097;-47
2021/06/05 08:54:38;;;;;;;5.97;4.47;;;;;;;30.51;36.04;100072.06;5117650;28;20059;-47
2021/06/05 08:57:19;;;;;;;5.90;4.50;;;;;;;30.44;35.90;100072.88;5116387;28;20089;-47
2021/06/05 08:59:45;;;;;;;3.80;3.40;;;;;;;30.35;36.51;100068.44;5117268;28;20077;-47
2021/06/05 09:02:11;;;;;;;4.80;4.40;;;;;;;30.36;36.20;100067.44;5082388;28;20054;-47
2021/06/05 09:04:38;;;;;;;5.07;4.43;;;;;;;30.53;35.59;100074.63;5115934;28;20044;-47
2021/06/05 09:07:09;;;;;;;3.95;3.55;;;;;;;30.62;36.17;100067.41;5116675;28;20058;-47
2021/06/05 09:09:37;;;;;;;3.53;3.13;;;;;;;30.62;36.26;100064.72;5116906;28;20360;-47
2021/06/05 09:12:04;;;;;;;5.40;4.22;;;;;;;30.85;35.68;100065.03;5115960;28;20461;-47
2021/06/05 09:14:30;;;;;;;5.03;3.78;;;;;;;30.82;34.47;100066.19;5115822;28;20069;-47
2021/06/05 09:16:56;;;;;;;4.00;3.33;;;;;;;30.74;34.54;100061.56;5114801;28;20210;-47
2021/06/05 09:19:26;;;;;;;5.20;2.70;;;;;;;30.90;35.87;100059.94;5097792;28;20051;-47
2021/06/05 09:21:59;;;;;;;4.25;3.30;;;;;;;30.92;35.66;100053.38;5115479;28;20070;-47
2021/06/05 09:24:30;;;;;;;3.30;2.70;;;;;;;31.07;35.20;100060.84;5098966;28;20379;-47
2021/06/05 09:27:16;;;;;;;6.50;3.33;;;;;;;31.25;34.67;100058.88;5116533;28;20070;-47
2021/06/05 09:29:48;;;;;;;3.47;3.08;;;;;;;31.31;35.04;100058.22;5116898;28;20047;-46
2021/06/05 09:32:16;;;;;;;3.15;2.63;;;;;;;31.42;34.14;100054.34;5116769;28;20039;-46
2021/06/05 09:34:45;;;;;;;2.78;2.47;;;;;;;31.35;32.63;100050.63;5116502;28;20032;-47
2021/06/05 09:37:48;;;;;;;3.22;2.10;;;;;;;31.37;31.48;100051.31;5116711;28;20047;-47
2021/06/05 09:40:27;;;;;;;4.97;2.28;;;;;;;31.43;32.32;100045.25;5115579;28;20089;-47
2021/06/05 09:43:09;;;;;;;3.55;2.17;;;;;;;31.46;31.61;100044.91;5115377;28;20051;-47
2021/06/05 09:45:37;;;;;;;2.97;1.83;;;;;;;31.22;30.39;100047.53;5116143;28;20073;-47
2021/06/05 09:48:35;;;;;;;3.03;1.92;;;;;;;31.41;30.71;100048.09;5113599;28;20048;-47
2021/06/05 09:51:04;;;;;;;4.70;2.08;;;;;;;31.49;31.09;100044.56;5114809;28;20078;-47
2021/06/05 09:53:38;;;;;;;1.58;1.30;;;;;;;31.54;30.10;100046.78;5116086;28;20329;-47
2021/06/05 09:56:21;;;;;;;1.60;1.30;;;;;;;31.62;29.49;100036.81;5115338;28;20081;-47
2021/06/05 09:58:47;;;;;;;3.20;1.88;;;;;;;31.67;29.67;100033.56;5080128;28;20074;-47
2021/06/05 10:01:19;;;;;;;3.55;2.05;;;;;;;31.61;29.95;100028.84;5096615;28;20051;-47
2021/06/05 10:03:45;;;;;;;3.25;1.17;;;;;;;31.59;30.71;100030.84;5113350;28;20089;-47
2021/06/05 10:06:20;;;;;;;4.10;1.35;;;;;;;31.67;28.83;100031.72;5113463;28;20070;-47
2021/06/05 10:08:47;;;;;;;2.30;1.23;;;;;;;31.51;28.35;100031.72;5114433;28;20051;-47
2021/06/05 10:11:19;;;;;;;2.22;1.40;;;;;;;31.49;29.54;100028.31;5113684;28;20043;-47
2021/06/05 10:13:47;;;;;;;2.05;1.58;;;;;;;31.64;29.09;100026.63;5116718;28;20412;-47
2021/06/05 10:16:17;;;;;;;3.25;1.80;;;;;;;31.77;29.19;100020.72;5081770;28;20048;-47
2021/06/05 10:18:52;;;;;;;2.95;1.45;;;;;;;31.83;28.89;100017.31;5115507;28;20065;-47
2021/06/05 10:21:22;;;;;;;3.38;1.27;;;;;;;31.94;29.37;100024.28;5115151;28;20105;-47
2021/06/05 10:24:00;;;;;;;1.40;1.27;;;;;;;31.84;27.95;100024.41;5115197;28;20088;-47
2021/06/05 10:26:34;;;;;;;4.53;1.63;;;;;;;31.57;27.34;100028.34;5101940;28;20035;-47
2021/06/05 10:29:28;;;;;;;2.85;1.60;;;;;;;31.60;28.42;100030.69;5085394;28;20058;-47
2021/06/05 10:31:55;;;;;;;1.60;1.42;;;;;;;31.65;29.15;100031.06;5118630;28;20060;-47
2021/06/05 10:34:44;;;;;;;3.35;1.48;;;;;;;31.80;28.75;100011.41;5119124;28;20047;-47
2021/06/05 10:37:14;;;;;;;3.17;1.60;;;;;;;32.04;27.40;100024.94;5102573;28;20056;-47
2021/06/05 10:39:41;;;;;;;2.42;1.80;;;;;;;32.02;27.89;100018.84;5118843;28;20078;-47
2021/06/05 10:42:37;;;;;;;1.30;1.20;;;;;;;32.01;28.51;100021.72;5118568;28;20068;-47
2021/06/05 10:45:04;;;;;;;2.13;1.35;;;;;;;32.16;28.98;100011.03;5118900;28;20051;-47
2021/06/05 10:47:51;;;;;;;2.72;1.58;;;;;;;32.37;28.55;100019.47;5119215;28;20054;-47
2021/06/05 10:50:22;;;;;;;1.73;1.48;;;;;;;32.63;29.24;100024.66;5103042;28;20074;-47
2021/06/05 10:52:53;;;;;;;1.70;1.10;;;;;;;32.67;28.23;100006.16;5119578;28;20131;-47
2021/06/05 10:55:23;;;;;;;;;;;;;;;32.15;27.46;100004.78;5068997;28;20069;-47
2021/06/05 10:58:11;;;;;;;2.70;1.60;;;;;;;32.03;28.14;100015.13;5119376;28;19969;-47
2021/06/05 11:00:48;;;;;;;2.28;1.50;;;;;;;31.84;28.05;100015.47;5119631;28;20451;-47
2021/06/05 11:03:23;;;;;;;3.00;2.00;;;;;;;31.59;28.74;100015.50;5118373;28;20040;-47
2021/06/05 11:06:10;;;;;;;2.75;2.22;;;;;;;31.46;29.25;100020.56;5119291;28;20052;-47
2021/06/05 11:08:42;;;;;;;5.25;2.00;;;;;;;31.13;29.74;100019.63;5119477;28;20513;-47
2021/06/05 11:11:08;;;;;;;1.67;1.55;;;;;;;30.95;30.08;100007.09;5118651;28;20386;-47
2021/06/05 11:16:06;;;;;;;2.50;2.00;;;;;;;31.17;29.71;100008.31;5117190;28;20150;-47
2021/06/05 11:18:35;;;;;;;1.73;1.52;;;;;;;31.35;30.73;100013.59;5115878;28;20066;-47
2021/06/05 11:21:22;;;;;;;4.05;2.10;;;;;;;31.57;30.64;100008.56;5115852;28;20051;-47
2021/06/05 11:23:58;;;;;;;2.47;1.40;;;;;;;31.59;30.12;100004.66;5116574;28;20048;-47
2021/06/05 11:26:39;;;;;;;4.85;2.05;;;;;;;31.31;29.73;100012.22;5115797;28;20043;-47
2021/06/05 11:29:15;;;;;;;2.78;2.10;;;;;;;30.92;30.30;100004.72;5118679;28;20160;-47
2021/06/05 11:31:57;;;;;;;2.95;2.30;;;;;;;30.34;30.86;100013.56;5118748;28;20059;-46
2021/06/05 11:34:29;;;;;;;3.83;2.08;;;;;;;29.89;31.38;100003.81;5118700;28;20113;-47
2021/06/05 11:37:12;;;;;;;1.80;1.70;;;;;;;29.67;32.38;100007.03;5118483;28;20051;-47
2021/06/05 11:39:55;;;;;;;1.95;1.75;;;;;;;29.50;32.23;100006.00;5118338;28;20044;-46